TimeEDT,TemperatureF,Dew PointF,Humidity,Sea Level PressureIn,VisibilityMPH,Wind Direction,Wind SpeedMPH,Gust SpeedMPH,PrecipitationIn,Events,Conditions,WindDirDegrees,DateUTC
12:14 AM,50.9,30.6,46,30.07,10.0,SSE,8.1,-,N/A,,Clear,150,2013-05-28 04:14:00
12:35 AM,50.2,32.2,50,30.06,10.0,SSE,8.1,-,N/A,,Clear,160,2013-05-28 04:35:00
12:55 AM,50.9,31.1,47,30.05,10.0,SSE,6.9,-,N/A,,Clear,150,2013-05-28 04:55:00
1:14 AM,50.5,31.5,48,30.05,10.0,SE,6.9,-,N/A,,Clear,140,2013-05-28 05:14:00
1:35 AM,50.9,32.0,48,30.05,10.0,SE,6.9,-,N/A,,Clear,140,2013-05-28 05:35:00
1:55 AM,50.9,32.2,49,30.04,10.0,SSE,8.1,-,N/A,,Clear,150,2013-05-28 05:55:00
2:14 AM,50.7,33.3,51,30.04,10.0,SSE,8.1,-,N/A,,Scattered Clouds,150,2013-05-28 06:14:00
2:35 AM,51.1,34.3,53,30.03,10.0,SE,8.1,-,N/A,,Overcast,140,2013-05-28 06:35:00
2:55 AM,51.4,35.1,54,30.02,10.0,SE,5.8,-,N/A,,Overcast,140,2013-05-28 06:55:00
3:15 AM,51.6,36.1,56,30.02,10.0,ESE,5.8,-,N/A,,Overcast,110,2013-05-28 07:15:00
3:35 AM,51.8,36.5,56,30.02,10.0,ESE,4.6,-,N/A,,Overcast,110,2013-05-28 07:35:00
3:55 AM,51.3,37.6,60,30.01,10.0,East,5.8,-,N/A,,Overcast,100,2013-05-28 07:55:00
4:15 AM,52.2,37.0,56,30.00,10.0,East,5.8,-,N/A,,Overcast,90,2013-05-28 08:15:00
4:35 AM,51.3,38.7,62,30.00,10.0,East,5.8,-,N/A,,Overcast,100,2013-05-28 08:35:00
4:54 AM,50.9,39.0,64,29.99,10.0,East,3.5,-,N/A,,Mostly Cloudy,90,2013-05-28 08:54:00
5:15 AM,50.9,39.6,65,29.99,10.0,ESE,4.6,-,N/A,Rain,Light Rain,110,2013-05-28 09:15:00
5:35 AM,49.8,40.8,71,29.99,10.0,ESE,5.8,-,N/A,Rain,Light Rain,120,2013-05-28 09:35:00
5:55 AM,48.9,42.8,79,29.99,10.0,ESE,3.5,-,N/A,,Overcast,110,2013-05-28 09:55:00
6:15 AM,48.4,44.1,85,30.00,10.0,ESE,3.5,-,N/A,,Overcast,110,2013-05-28 10:15:00
6:35 AM,48.6,44.1,84,30.00,10.0,ESE,3.5,-,N/A,,Overcast,120,2013-05-28 10:35:00
6:55 AM,49.6,43.9,81,30.00,10.0,SE,4.6,-,N/A,,Overcast,140,2013-05-28 10:55:00
7:15 AM,50.0,44.1,80,30.00,10.0,SE,5.8,-,N/A,,Overcast,130,2013-05-28 11:15:00
7:35 AM,50.2,45.5,84,29.99,7.0,SE,8.1,-,N/A,,Overcast,130,2013-05-28 11:35:00
7:55 AM,50.2,47.1,89,29.98,5.0,SE,6.9,-,N/A,Rain,Light Rain,130,2013-05-28 11:55:00
8:15 AM,51.1,48.6,91,29.97,7.0,ESE,8.1,-,N/A,Rain,Rain,120,2013-05-28 12:15:00
8:34 AM,51.8,49.5,92,29.97,5.0,SE,9.2,-,N/A,,Overcast,140,2013-05-28 12:34:00
8:55 AM,51.6,49.1,91,29.97,10.0,SE,13.8,-,N/A,,Overcast,140,2013-05-28 12:55:00
9:15 AM,51.4,49.1,92,29.98,10.0,SE,12.7,18.4,N/A,,Overcast,140,2013-05-28 13:15:00
9:35 AM,51.8,49.3,91,29.97,5.0,SE,13.8,19.6,N/A,,Overcast,140,2013-05-28 13:35:00
9:55 AM,51.3,48.7,91,29.97,4.0,SSE,15.0,21.9,N/A,,Overcast,150,2013-05-28 13:55:00
10:14 AM,51.6,48.9,90,29.96,5.0,SE,13.8,-,N/A,,Overcast,140,2013-05-28 14:14:00
10:35 AM,52.2,49.3,90,29.95,5.0,SE,8.1,-,N/A,,Overcast,140,2013-05-28 14:35:00
10:55 AM,52.2,49.3,90,29.94,7.0,ESE,12.7,-,N/A,,Overcast,120,2013-05-28 14:55:00
11:15 AM,52.9,49.8,89,29.93,10.0,ESE,11.5,-,N/A,,Overcast,120,2013-05-28 15:15:00
11:35 AM,52.9,49.8,89,29.93,7.0,ESE,9.2,16.1,N/A,,Overcast,120,2013-05-28 15:35:00
11:55 AM,53.6,50.2,88,29.94,7.0,SE,10.4,-,N/A,,Overcast,140,2013-05-28 15:55:00
12:15 PM,53.2,50.0,89,29.94,5.0,SSE,10.4,-,N/A,,Overcast,150,2013-05-28 16:15:00
12:35 PM,52.7,49.8,90,29.94,4.0,SE,11.5,-,N/A,,Overcast,140,2013-05-28 16:35:00
12:55 PM,52.2,49.6,91,29.93,4.0,SE,13.8,-,N/A,Rain,Light Rain,140,2013-05-28 16:55:00
1:15 PM,52.3,50.0,92,29.91,4.0,ESE,9.2,-,N/A,,Overcast,120,2013-05-28 17:15:00
1:35 PM,52.7,50.2,91,29.91,3.0,SE,11.5,-,N/A,,Overcast,130,2013-05-28 17:35:00
1:55 PM,52.7,50.4,92,29.90,2.0,ESE,15.0,21.9,N/A,Rain,Rain,120,2013-05-28 17:55:00
2:15 PM,49.6,47.7,93,29.89,2.0,East,10.4,-,N/A,Rain,Rain,90,2013-05-28 18:15:00
2:35 PM,50.0,48.2,94,29.89,2.0,ESE,6.9,-,N/A,Rain,Rain,110,2013-05-28 18:35:00
2:55 PM,51.8,50.4,95,29.87,2.5,East,10.4,-,N/A,Rain,Light Rain,100,2013-05-28 18:55:00
3:14 PM,51.8,50.2,94,29.87,4.0,ESE,12.7,17.3,N/A,Rain,Rain,110,2013-05-28 19:14:00
3:35 PM,51.6,50.0,94,29.88,7.0,SE,9.2,-,N/A,Rain,Rain,130,2013-05-28 19:35:00
3:55 PM,51.8,50.2,94,29.88,5.0,SE,8.1,-,N/A,Rain,Rain,130,2013-05-28 19:55:00
4:14 PM,52.0,50.4,94,29.87,4.0,ESE,5.8,-,N/A,Rain,Rain,120,2013-05-28 20:14:00
4:35 PM,52.7,51.1,94,29.86,7.0,ESE,8.1,-,N/A,Rain,Rain,120,2013-05-28 20:35:00
4:55 PM,52.5,50.9,94,29.85,4.0,East,5.8,-,N/A,,Drizzle,90,2013-05-28 20:55:00
5:15 PM,52.0,50.7,95,29.85,3.0,East,4.6,-,N/A,,Drizzle,80,2013-05-28 21:15:00
5:35 PM,50.0,48.6,95,29.85,2.0,ENE,3.5,-,N/A,Rain,Light Rain,60,2013-05-28 21:35:00
5:55 PM,50.0,48.7,95,29.84,1.8,ENE,3.5,-,N/A,Rain,Light Rain,70,2013-05-28 21:55:00
6:15 PM,49.8,48.4,95,29.83,2.5,East,5.8,-,N/A,Rain,Rain,80,2013-05-28 22:15:00
6:35 PM,48.2,47.1,96,29.83,1.5,East,4.6,-,N/A,Rain,Rain,100,2013-05-28 22:35:00
6:54 PM,48.2,46.9,95,29.82,2.0,East,5.8,-,N/A,,Overcast,100,2013-05-28 22:54:00
7:15 PM,48.4,47.3,96,29.82,1.5,East,4.6,-,N/A,,Overcast,90,2013-05-28 23:15:00
7:35 PM,48.7,47.7,96,29.82,1.5,East,3.5,-,N/A,,Overcast,80,2013-05-28 23:35:00
7:54 PM,48.4,47.3,96,29.82,1.0,Calm,Calm,-,N/A,,Overcast,0,2013-05-28 23:54:00
8:15 PM,49.1,48.2,97,29.82,0.8,East,4.6,-,N/A,,Overcast,80,2013-05-29 00:15:00
8:34 PM,48.4,47.3,96,29.82,0.5,ENE,4.6,-,N/A,Fog,Fog,70,2013-05-29 00:34:00
8:55 PM,48.4,47.3,96,29.82,0.5,East,3.5,-,N/A,Fog,Fog,90,2013-05-29 00:55:00
9:15 PM,48.4,47.5,97,29.81,0.5,ESE,4.6,-,N/A,Fog,Fog,110,2013-05-29 01:15:00
9:35 PM,49.1,48.2,97,29.81,0.2,Calm,Calm,-,N/A,Fog,Fog,0,2013-05-29 01:35:00
9:55 PM,49.3,48.4,97,29.80,0.2,Calm,Calm,-,N/A,Fog,Fog,0,2013-05-29 01:55:00
10:14 PM,49.1,48.2,97,29.79,0.5,East,3.5,-,N/A,Fog,Fog,90,2013-05-29 02:14:00
10:35 PM,49.5,48.6,97,29.80,2.5,Calm,Calm,-,N/A,,Overcast,0,2013-05-29 02:35:00
10:55 PM,49.6,48.7,97,29.81,3.0,Calm,Calm,-,N/A,,Overcast,0,2013-05-29 02:55:00
11:14 PM,48.6,47.7,97,29.79,2.0,Calm,Calm,-,N/A,,Overcast,0,2013-05-29 03:14:00
11:35 PM,48.2,47.3,97,29.80,2.5,Calm,Calm,-,N/A,,Overcast,0,2013-05-29 03:35:00
11:53 PM,48.6,47.7,97,29.78,3.0,Calm,Calm,-,N/A,,Overcast,0,2013-05-29 03:53:00